sensor_id;sensor_type;location;lat;lon;timestamp;temperature;humidity
43987;DHT22;29650;47.378;8.300;2023-03-25T00:02:21;9.50;99.90
43987;DHT22;29650;47.378;8.300;2023-03-25T00:04:49;9.50;99.90
43987;DHT22;29650;47.378;8.300;2023-03-25T00:07:17;9.30;99.90
43987;DHT22;29650;47.378;8.300;2023-03-25T00:09:45;9.00;99.90
43987;DHT22;29650;47.378;8.300;2023-03-25T00:12:14;9.00;99.90
43987;DHT22;29650;47.378;8.300;2023-03-25T00:14:41;9.00;99.90
43987;DHT22;29650;47.378;8.300;2023-03-25T00:17:08;9.00;99.90
43987;DHT22;29650;47.378;8.300;2023-03-25T00:19:38;9.00;99.90
43987;DHT22;29650;47.378;8.300;2023-03-25T00:22:06;8.90;99.90
43987;DHT22;29650;47.378;8.300;2023-03-25T00:24:33;8.90;99.90
43987;DHT22;29650;47.378;8.300;2023-03-25T00:27:02;8.80;99.90
43987;DHT22;29650;47.378;8.300;2023-03-25T00:29:29;8.90;99.90
43987;DHT22;29650;47.378;8.300;2023-03-25T00:31:56;8.80;99.90
43987;DHT22;29650;47.378;8.300;2023-03-25T00:34:23;8.80;99.90
43987;DHT22;29650;47.378;8.300;2023-03-25T00:36:50;8.80;99.90
43987;DHT22;29650;47.378;8.300;2023-03-25T00:39:17;8.90;99.90
43987;DHT22;29650;47.378;8.300;2023-03-25T00:41:44;8.80;99.90
43987;DHT22;29650;47.378;8.300;2023-03-25T00:44:14;8.90;99.90
43987;DHT22;29650;47.378;8.300;2023-03-25T00:46:41;8.90;99.90
43987;DHT22;29650;47.378;8.300;2023-03-25T00:49:08;9.00;99.90
43987;DHT22;29650;47.378;8.300;2023-03-25T00:51:36;8.80;99.90
43987;DHT22;29650;47.378;8.300;2023-03-25T00:54:03;8.80;99.90
43987;DHT22;29650;47.378;8.300;2023-03-25T00:56:30;8.80;99.90
43987;DHT22;29650;47.378;8.300;2023-03-25T00:58:57;8.90;99.90
43987;DHT22;29650;47.378;8.300;2023-03-25T01:01:27;8.90;99.90
43987;DHT22;29650;47.378;8.300;2023-03-25T01:03:55;9.00;99.90
43987;DHT22;29650;47.378;8.300;2023-03-25T01:06:24;8.90;99.90
43987;DHT22;29650;47.378;8.300;2023-03-25T01:08:54;8.90;99.90
43987;DHT22;29650;47.378;8.300;2023-03-25T01:11:24;8.90;99.90
43987;DHT22;29650;47.378;8.300;2023-03-25T01:13:52;8.90;99.90
43987;DHT22;29650;47.378;8.300;2023-03-25T01:16:19;8.80;99.90
43987;DHT22;29650;47.378;8.300;2023-03-25T01:18:48;8.80;99.90
43987;DHT22;29650;47.378;8.300;2023-03-25T01:21:15;8.80;99.90
43987;DHT22;29650;47.378;8.300;2023-03-25T01:23:41;8.80;99.90
43987;DHT22;29650;47.378;8.300;2023-03-25T01:26:08;8.80;99.90
43987;DHT22;29650;47.378;8.300;2023-03-25T01:28:37;8.70;99.90
43987;DHT22;29650;47.378;8.300;2023-03-25T01:31:06;8.80;99.90
43987;DHT22;29650;47.378;8.300;2023-03-25T01:33:33;8.60;99.90
43987;DHT22;29650;47.378;8.300;2023-03-25T01:36:02;8.70;99.90
43987;DHT22;29650;47.378;8.300;2023-03-25T01:38:29;8.70;99.90
43987;DHT22;29650;47.378;8.300;2023-03-25T01:40:56;8.80;99.90
43987;DHT22;29650;47.378;8.300;2023-03-25T01:43:23;8.90;99.90
43987;DHT22;29650;47.378;8.300;2023-03-25T01:45:50;8.80;99.90
43987;DHT22;29650;47.378;8.300;2023-03-25T01:48:20;8.80;99.90
43987;DHT22;29650;47.378;8.300;2023-03-25T01:50:53;8.70;99.90
43987;DHT22;29650;47.378;8.300;2023-03-25T01:53:22;8.90;99.90
43987;DHT22;29650;47.378;8.300;2023-03-25T01:55:51;8.90;99.90
43987;DHT22;29650;47.378;8.300;2023-03-25T01:58:20;8.90;99.90
43987;DHT22;29650;47.378;8.300;2023-03-25T02:00:48;8.80;99.90
43987;DHT22;29650;47.378;8.300;2023-03-25T02:03:17;8.70;99.90
43987;DHT22;29650;47.378;8.300;2023-03-25T02:05:46;8.80;99.90
43987;DHT22;29650;47.378;8.300;2023-03-25T02:08:14;8.80;99.90
43987;DHT22;29650;47.378;8.300;2023-03-25T02:10:45;8.70;99.90
43987;DHT22;29650;47.378;8.300;2023-03-25T02:13:13;8.70;99.90
43987;DHT22;29650;47.378;8.300;2023-03-25T02:15:57;8.50;99.90
43987;DHT22;29650;47.378;8.300;2023-03-25T02:18:35;8.50;99.90
43987;DHT22;29650;47.378;8.300;2023-03-25T02:27:26;8.50;99.90
43987;DHT22;29650;47.378;8.300;2023-03-25T02:30:34;8.60;99.90
43987;DHT22;29650;47.378;8.300;2023-03-25T02:33:36;8.60;99.90
43987;DHT22;29650;47.378;8.300;2023-03-25T02:39:10;8.70;99.90
43987;DHT22;29650;47.378;8.300;2023-03-25T02:41:43;8.80;99.90
43987;DHT22;29650;47.378;8.300;2023-03-25T02:44:15;8.80;99.90
43987;DHT22;29650;47.378;8.300;2023-03-25T02:46:48;8.70;99.90
43987;DHT22;29650;47.378;8.300;2023-03-25T02:49:20;8.70;99.90
43987;DHT22;29650;47.378;8.300;2023-03-25T02:51:53;8.70;99.90
43987;DHT22;29650;47.378;8.300;2023-03-25T02:54:24;8.70;99.90
43987;DHT22;29650;47.378;8.300;2023-03-25T02:56:53;8.60;99.90
43987;DHT22;29650;47.378;8.300;2023-03-25T02:59:22;8.60;99.90
43987;DHT22;29650;47.378;8.300;2023-03-25T03:01:53;8.20;99.90
43987;DHT22;29650;47.378;8.300;2023-03-25T03:04:23;7.60;99.90
43987;DHT22;29650;47.378;8.300;2023-03-25T03:06:51;7.40;99.90
43987;DHT22;29650;47.378;8.300;2023-03-25T03:09:30;7.10;99.90
43987;DHT22;29650;47.378;8.300;2023-03-25T03:12:09;6.90;99.90
43987;DHT22;29650;47.378;8.300;2023-03-25T03:14:52;6.70;99.90
43987;DHT22;29650;47.378;8.300;2023-03-25T03:17:24;6.40;99.90
43987;DHT22;29650;47.378;8.300;2023-03-25T03:19:54;6.40;99.90
43987;DHT22;29650;47.378;8.300;2023-03-25T03:22:36;6.60;99.90
43987;DHT22;29650;47.378;8.300;2023-03-25T03:25:13;6.60;99.90
43987;DHT22;29650;47.378;8.300;2023-03-25T03:27:47;6.40;99.90
43987;DHT22;29650;47.378;8.300;2023-03-25T03:30:19;6.20;99.90
43987;DHT22;29650;47.378;8.300;2023-03-25T03:32:51;6.30;99.90
43987;DHT22;29650;47.378;8.300;2023-03-25T03:35:22;6.10;99.90
43987;DHT22;29650;47.378;8.300;2023-03-25T03:37:53;6.40;99.90
43987;DHT22;29650;47.378;8.300;2023-03-25T03:40:24;6.20;99.90
43987;DHT22;29650;47.378;8.300;2023-03-25T03:42:55;6.00;99.90
43987;DHT22;29650;47.378;8.300;2023-03-25T03:45:26;6.00;99.90
43987;DHT22;29650;47.378;8.300;2023-03-25T03:47:56;6.00;99.90
43987;DHT22;29650;47.378;8.300;2023-03-25T03:50:26;6.30;99.90
43987;DHT22;29650;47.378;8.300;2023-03-25T03:52:59;6.50;99.90
43987;DHT22;29650;47.378;8.300;2023-03-25T03:55:34;6.60;99.90
43987;DHT22;29650;47.378;8.300;2023-03-25T03:58:07;6.70;99.90
43987;DHT22;29650;47.378;8.300;2023-03-25T04:00:39;6.80;99.90
43987;DHT22;29650;47.378;8.300;2023-03-25T04:03:13;6.60;99.90
43987;DHT22;29650;47.378;8.300;2023-03-25T04:05:44;6.70;99.90
43987;DHT22;29650;47.378;8.300;2023-03-25T04:08:20;6.80;99.90
43987;DHT22;29650;47.378;8.300;2023-03-25T04:10:52;6.70;99.90
43987;DHT22;29650;47.378;8.300;2023-03-25T04:13:29;6.50;99.90
43987;DHT22;29650;47.378;8.300;2023-03-25T04:15:58;6.60;99.90
43987;DHT22;29650;47.378;8.300;2023-03-25T04:18:25;6.80;99.90
43987;DHT22;29650;47.378;8.300;2023-03-25T04:20:53;6.70;99.90
43987;DHT22;29650;47.378;8.300;2023-03-25T04:23:20;6.80;99.90
43987;DHT22;29650;47.378;8.300;2023-03-25T04:25:49;7.00;99.90
43987;DHT22;29650;47.378;8.300;2023-03-25T04:28:18;7.00;99.90
43987;DHT22;29650;47.378;8.300;2023-03-25T04:30:45;7.10;99.90
43987;DHT22;29650;47.378;8.300;2023-03-25T04:33:13;7.10;99.90
43987;DHT22;29650;47.378;8.300;2023-03-25T04:35:40;6.80;99.90
43987;DHT22;29650;47.378;8.300;2023-03-25T04:38:07;6.80;99.90
43987;DHT22;29650;47.378;8.300;2023-03-25T04:40:34;7.00;99.90
43987;DHT22;29650;47.378;8.300;2023-03-25T04:43:06;6.60;99.90
43987;DHT22;29650;47.378;8.300;2023-03-25T04:45:33;6.80;99.90
43987;DHT22;29650;47.378;8.300;2023-03-25T04:48:01;6.90;99.90
43987;DHT22;29650;47.378;8.300;2023-03-25T04:50:31;6.90;99.90
43987;DHT22;29650;47.378;8.300;2023-03-25T04:52:58;6.90;99.90
43987;DHT22;29650;47.378;8.300;2023-03-25T04:55:26;7.00;99.90
43987;DHT22;29650;47.378;8.300;2023-03-25T04:57:54;7.00;99.90
43987;DHT22;29650;47.378;8.300;2023-03-25T05:00:23;7.00;99.90
43987;DHT22;29650;47.378;8.300;2023-03-25T05:02:52;7.10;99.90
43987;DHT22;29650;47.378;8.300;2023-03-25T05:05:20;7.10;99.90
43987;DHT22;29650;47.378;8.300;2023-03-25T05:07:49;7.20;99.90
43987;DHT22;29650;47.378;8.300;2023-03-25T05:10:17;7.20;99.90
43987;DHT22;29650;47.378;8.300;2023-03-25T05:12:44;7.30;99.90
43987;DHT22;29650;47.378;8.300;2023-03-25T05:15:12;7.00;99.90
43987;DHT22;29650;47.378;8.300;2023-03-25T05:17:40;7.10;99.90
43987;DHT22;29650;47.378;8.300;2023-03-25T05:20:09;7.00;99.90
43987;DHT22;29650;47.378;8.300;2023-03-25T05:22:37;7.00;99.90
43987;DHT22;29650;47.378;8.300;2023-03-25T05:25:04;7.00;99.90
43987;DHT22;29650;47.378;8.300;2023-03-25T05:27:32;7.10;99.90
43987;DHT22;29650;47.378;8.300;2023-03-25T05:29:59;7.20;99.90
43987;DHT22;29650;47.378;8.300;2023-03-25T05:32:27;7.20;99.90
43987;DHT22;29650;47.378;8.300;2023-03-25T05:34:59;7.30;99.90
43987;DHT22;29650;47.378;8.300;2023-03-25T05:37:26;7.20;99.90
43987;DHT22;29650;47.378;8.300;2023-03-25T05:39:53;7.40;99.90
43987;DHT22;29650;47.378;8.300;2023-03-25T05:42:20;7.50;99.90
43987;DHT22;29650;47.378;8.300;2023-03-25T05:44:48;7.50;99.90
43987;DHT22;29650;47.378;8.300;2023-03-25T05:47:17;7.40;99.90
43987;DHT22;29650;47.378;8.300;2023-03-25T05:49:46;7.30;99.90
43987;DHT22;29650;47.378;8.300;2023-03-25T05:52:14;7.40;99.90
43987;DHT22;29650;47.378;8.300;2023-03-25T05:54:42;7.50;99.90
43987;DHT22;29650;47.378;8.300;2023-03-25T05:57:10;7.50;99.90
43987;DHT22;29650;47.378;8.300;2023-03-25T05:59:37;7.40;99.90
43987;DHT22;29650;47.378;8.300;2023-03-25T06:02:06;7.30;99.90
43987;DHT22;29650;47.378;8.300;2023-03-25T06:04:33;7.30;99.90
43987;DHT22;29650;47.378;8.300;2023-03-25T06:07:04;7.30;99.90
43987;DHT22;29650;47.378;8.300;2023-03-25T06:09:35;7.30;99.90
43987;DHT22;29650;47.378;8.300;2023-03-25T06:12:02;7.10;99.90
43987;DHT22;29650;47.378;8.300;2023-03-25T06:14:29;7.10;99.90
43987;DHT22;29650;47.378;8.300;2023-03-25T06:16:56;7.10;99.90
43987;DHT22;29650;47.378;8.300;2023-03-25T06:19:23;6.90;99.90
43987;DHT22;29650;47.378;8.300;2023-03-25T06:21:51;7.10;99.90
43987;DHT22;29650;47.378;8.300;2023-03-25T06:24:19;7.30;99.90
43987;DHT22;29650;47.378;8.300;2023-03-25T06:26:48;7.40;99.90
43987;DHT22;29650;47.378;8.300;2023-03-25T06:29:15;7.50;99.90
43987;DHT22;29650;47.378;8.300;2023-03-25T06:31:42;7.50;99.90
43987;DHT22;29650;47.378;8.300;2023-03-25T06:34:09;7.60;99.90
43987;DHT22;29650;47.378;8.300;2023-03-25T06:36:36;7.70;99.90
43987;DHT22;29650;47.378;8.300;2023-03-25T06:39:03;7.50;99.90
43987;DHT22;29650;47.378;8.300;2023-03-25T06:41:31;7.70;99.90
43987;DHT22;29650;47.378;8.300;2023-03-25T06:44:01;7.80;99.90
43987;DHT22;29650;47.378;8.300;2023-03-25T06:46:28;7.80;99.90
43987;DHT22;29650;47.378;8.300;2023-03-25T06:48:55;8.00;99.90
43987;DHT22;29650;47.378;8.300;2023-03-25T06:51:22;8.00;99.90
43987;DHT22;29650;47.378;8.300;2023-03-25T06:53:49;8.10;99.90
43987;DHT22;29650;47.378;8.300;2023-03-25T06:56:16;8.00;99.90
43987;DHT22;29650;47.378;8.300;2023-03-25T06:58:42;7.90;99.90
43987;DHT22;29650;47.378;8.300;2023-03-25T07:01:11;8.00;99.90
43987;DHT22;29650;47.378;8.300;2023-03-25T07:03:38;8.00;99.90
43987;DHT22;29650;47.378;8.300;2023-03-25T07:06:06;8.10;99.90
43987;DHT22;29650;47.378;8.300;2023-03-25T07:08:33;8.20;99.90
43987;DHT22;29650;47.378;8.300;2023-03-25T07:11:01;8.40;99.90
43987;DHT22;29650;47.378;8.300;2023-03-25T07:13:27;8.30;99.90
43987;DHT22;29650;47.378;8.300;2023-03-25T07:15:56;8.30;99.90
43987;DHT22;29650;47.378;8.300;2023-03-25T07:18:24;8.20;99.90
43987;DHT22;29650;47.378;8.300;2023-03-25T07:20:51;8.20;99.90
43987;DHT22;29650;47.378;8.300;2023-03-25T07:23:18;8.30;99.90
43987;DHT22;29650;47.378;8.300;2023-03-25T07:25:45;8.40;99.90
43987;DHT22;29650;47.378;8.300;2023-03-25T07:28:12;8.30;99.90
43987;DHT22;29650;47.378;8.300;2023-03-25T07:30:40;8.40;99.90
43987;DHT22;29650;47.378;8.300;2023-03-25T07:33:07;8.30;99.90
43987;DHT22;29650;47.378;8.300;2023-03-25T07:35:35;8.40;99.90
43987;DHT22;29650;47.378;8.300;2023-03-25T07:38:02;8.40;99.90
43987;DHT22;29650;47.378;8.300;2023-03-25T07:40:29;8.40;99.90
43987;DHT22;29650;47.378;8.300;2023-03-25T07:42:56;8.50;99.90
43987;DHT22;29650;47.378;8.300;2023-03-25T07:45:23;8.50;99.90
43987;DHT22;29650;47.378;8.300;2023-03-25T07:47:50;8.40;99.90
43987;DHT22;29650;47.378;8.300;2023-03-25T07:50:18;8.60;99.90
43987;DHT22;29650;47.378;8.300;2023-03-25T07:52:47;8.60;99.90
43987;DHT22;29650;47.378;8.300;2023-03-25T07:55:15;8.60;99.90
43987;DHT22;29650;47.378;8.300;2023-03-25T07:57:42;8.50;99.90
43987;DHT22;29650;47.378;8.300;2023-03-25T08:00:10;8.40;99.90
43987;DHT22;29650;47.378;8.300;2023-03-25T08:02:37;8.50;99.90
43987;DHT22;29650;47.378;8.300;2023-03-25T08:05:05;8.40;99.90
43987;DHT22;29650;47.378;8.300;2023-03-25T08:07:32;8.50;99.90
43987;DHT22;29650;47.378;8.300;2023-03-25T08:10:01;8.50;99.90
43987;DHT22;29650;47.378;8.300;2023-03-25T08:12:28;8.50;99.90
43987;DHT22;29650;47.378;8.300;2023-03-25T08:14:55;8.50;99.90
43987;DHT22;29650;47.378;8.300;2023-03-25T08:17:22;8.50;99.90
43987;DHT22;29650;47.378;8.300;2023-03-25T08:19:49;8.60;99.90
43987;DHT22;29650;47.378;8.300;2023-03-25T08:22:16;8.70;99.90
43987;DHT22;29650;47.378;8.300;2023-03-25T08:24:43;8.80;99.90
43987;DHT22;29650;47.378;8.300;2023-03-25T08:27:11;8.70;99.90
43987;DHT22;29650;47.378;8.300;2023-03-25T08:29:38;8.70;99.90
43987;DHT22;29650;47.378;8.300;2023-03-25T08:32:05;8.70;99.90
43987;DHT22;29650;47.378;8.300;2023-03-25T08:34:32;8.90;99.90
43987;DHT22;29650;47.378;8.300;2023-03-25T08:37:04;9.10;99.90
43987;DHT22;29650;47.378;8.300;2023-03-25T08:39:32;9.10;99.90
43987;DHT22;29650;47.378;8.300;2023-03-25T08:42:04;9.00;99.90
43987;DHT22;29650;47.378;8.300;2023-03-25T08:44:33;9.00;99.90
43987;DHT22;29650;47.378;8.300;2023-03-25T08:47:00;9.10;99.90
43987;DHT22;29650;47.378;8.300;2023-03-25T08:49:27;9.10;99.90
43987;DHT22;29650;47.378;8.300;2023-03-25T08:51:54;9.30;99.90
43987;DHT22;29650;47.378;8.300;2023-03-25T08:54:22;9.40;99.90
43987;DHT22;29650;47.378;8.300;2023-03-25T08:56:49;9.30;99.90
43987;DHT22;29650;47.378;8.300;2023-03-25T08:59:16;9.30;99.90
43987;DHT22;29650;47.378;8.300;2023-03-25T09:01:44;9.10;99.90
43987;DHT22;29650;47.378;8.300;2023-03-25T09:04:11;9.10;99.90
43987;DHT22;29650;47.378;8.300;2023-03-25T09:06:38;9.00;99.90
43987;DHT22;29650;47.378;8.300;2023-03-25T09:09:05;9.00;99.90
43987;DHT22;29650;47.378;8.300;2023-03-25T09:11:34;8.90;99.90
43987;DHT22;29650;47.378;8.300;2023-03-25T09:14:01;9.00;99.90
43987;DHT22;29650;47.378;8.300;2023-03-25T09:16:28;9.00;99.90
43987;DHT22;29650;47.378;8.300;2023-03-25T09:18:56;9.20;99.90
43987;DHT22;29650;47.378;8.300;2023-03-25T09:21:23;9.20;99.90
43987;DHT22;29650;47.378;8.300;2023-03-25T09:23:51;9.50;99.90
43987;DHT22;29650;47.378;8.300;2023-03-25T09:26:18;9.60;99.90
43987;DHT22;29650;47.378;8.300;2023-03-25T09:28:45;9.60;99.90
43987;DHT22;29650;47.378;8.300;2023-03-25T09:31:12;9.70;99.90
43987;DHT22;29650;47.378;8.300;2023-03-25T09:33:40;9.50;99.90
43987;DHT22;29650;47.378;8.300;2023-03-25T09:36:09;9.50;99.90
43987;DHT22;29650;47.378;8.300;2023-03-25T09:38:36;9.50;99.90
43987;DHT22;29650;47.378;8.300;2023-03-25T09:41:12;9.50;99.90
43987;DHT22;29650;47.378;8.300;2023-03-25T09:43:52;9.50;99.90
43987;DHT22;29650;47.378;8.300;2023-03-25T09:46:22;9.50;99.90
43987;DHT22;29650;47.378;8.300;2023-03-25T09:48:50;9.40;99.90
43987;DHT22;29650;47.378;8.300;2023-03-25T09:51:22;9.20;99.90
43987;DHT22;29650;47.378;8.300;2023-03-25T09:53:53;9.10;99.90
43987;DHT22;29650;47.378;8.300;2023-03-25T09:56:25;9.20;99.90
43987;DHT22;29650;47.378;8.300;2023-03-25T09:58:55;9.30;99.90
43987;DHT22;29650;47.378;8.300;2023-03-25T10:01:31;9.40;99.90
43987;DHT22;29650;47.378;8.300;2023-03-25T10:04:13;10.00;99.90
43987;DHT22;29650;47.378;8.300;2023-03-25T10:06:49;10.30;99.90
43987;DHT22;29650;47.378;8.300;2023-03-25T10:09:41;10.60;99.90
43987;DHT22;29650;47.378;8.300;2023-03-25T10:12:23;10.00;99.90
43987;DHT22;29650;47.378;8.300;2023-03-25T10:15:00;10.20;99.90
43987;DHT22;29650;47.378;8.300;2023-03-25T10:17:33;9.90;99.90
43987;DHT22;29650;47.378;8.300;2023-03-25T10:20:05;10.20;99.90
43987;DHT22;29650;47.378;8.300;2023-03-25T10:22:41;10.40;99.90
43987;DHT22;29650;47.378;8.300;2023-03-25T10:25:14;10.10;99.90
43987;DHT22;29650;47.378;8.300;2023-03-25T10:27:44;10.40;99.90
43987;DHT22;29650;47.378;8.300;2023-03-25T10:30:15;10.20;99.90
43987;DHT22;29650;47.378;8.300;2023-03-25T10:32:45;10.20;99.90
43987;DHT22;29650;47.378;8.300;2023-03-25T10:35:17;10.20;99.90
43987;DHT22;29650;47.378;8.300;2023-03-25T10:37:48;10.40;99.90
43987;DHT22;29650;47.378;8.300;2023-03-25T10:40:21;10.50;99.90
43987;DHT22;29650;47.378;8.300;2023-03-25T10:42:57;10.70;99.90
43987;DHT22;29650;47.378;8.300;2023-03-25T10:45:25;10.80;99.90
43987;DHT22;29650;47.378;8.300;2023-03-25T10:47:59;10.70;99.90
43987;DHT22;29650;47.378;8.300;2023-03-25T10:50:27;10.90;99.90
43987;DHT22;29650;47.378;8.300;2023-03-25T10:52:55;10.80;99.90
43987;DHT22;29650;47.378;8.300;2023-03-25T10:55:24;10.90;99.90
43987;DHT22;29650;47.378;8.300;2023-03-25T10:57:54;10.70;99.90
43987;DHT22;29650;47.378;8.300;2023-03-25T11:00:22;10.70;99.20
43987;DHT22;29650;47.378;8.300;2023-03-25T11:02:50;10.70;98.30
43987;DHT22;29650;47.378;8.300;2023-03-25T11:05:21;10.60;97.70
43987;DHT22;29650;47.378;8.300;2023-03-25T11:07:50;10.80;96.90
43987;DHT22;29650;47.378;8.300;2023-03-25T11:10:23;10.70;97.30
43987;DHT22;29650;47.378;8.300;2023-03-25T11:12:52;11.00;97.10
43987;DHT22;29650;47.378;8.300;2023-03-25T11:15:21;11.10;95.20
43987;DHT22;29650;47.378;8.300;2023-03-25T11:17:57;11.20;93.90
43987;DHT22;29650;47.378;8.300;2023-03-25T11:20:27;11.20;93.50
43987;DHT22;29650;47.378;8.300;2023-03-25T11:23:02;11.60;92.40
43987;DHT22;29650;47.378;8.300;2023-03-25T11:25:35;11.70;91.00
43987;DHT22;29650;47.378;8.300;2023-03-25T11:28:10;12.10;91.20
43987;DHT22;29650;47.378;8.300;2023-03-25T11:31:07;12.00;88.30
43987;DHT22;29650;47.378;8.300;2023-03-25T11:33:35;11.80;86.70
43987;DHT22;29650;47.378;8.300;2023-03-25T11:36:21;12.20;87.50
43987;DHT22;29650;47.378;8.300;2023-03-25T11:38:55;12.10;86.20
43987;DHT22;29650;47.378;8.300;2023-03-25T11:41:27;12.20;85.60
43987;DHT22;29650;47.378;8.300;2023-03-25T11:43:54;12.30;84.00
43987;DHT22;29650;47.378;8.300;2023-03-25T11:46:22;12.40;84.50
43987;DHT22;29650;47.378;8.300;2023-03-25T11:48:49;12.50;82.50
43987;DHT22;29650;47.378;8.300;2023-03-25T11:51:20;12.60;82.00
43987;DHT22;29650;47.378;8.300;2023-03-25T11:53:52;12.40;79.60
43987;DHT22;29650;47.378;8.300;2023-03-25T11:56:26;12.50;79.30
43987;DHT22;29650;47.378;8.300;2023-03-25T11:58:57;12.60;79.80
43987;DHT22;29650;47.378;8.300;2023-03-25T12:01:27;12.40;79.40
43987;DHT22;29650;47.378;8.300;2023-03-25T12:04:07;12.60;77.20
43987;DHT22;29650;47.378;8.300;2023-03-25T12:06:52;12.80;78.20
43987;DHT22;29650;47.378;8.300;2023-03-25T12:09:19;12.60;75.40
43987;DHT22;29650;47.378;8.300;2023-03-25T12:11:57;12.30;74.80
43987;DHT22;29650;47.378;8.300;2023-03-25T12:14:35;12.50;75.50
43987;DHT22;29650;47.378;8.300;2023-03-25T12:17:08;12.40;74.10
43987;DHT22;29650;47.378;8.300;2023-03-25T12:19:44;12.10;73.50
43987;DHT22;29650;47.378;8.300;2023-03-25T12:22:25;12.20;74.90
43987;DHT22;29650;47.378;8.300;2023-03-25T12:25:08;12.50;74.60
43987;DHT22;29650;47.378;8.300;2023-03-25T12:27:46;12.60;74.10
43987;DHT22;29650;47.378;8.300;2023-03-25T12:30:29;12.90;73.00
43987;DHT22;29650;47.378;8.300;2023-03-25T12:33:04;13.20;74.50
43987;DHT22;29650;47.378;8.300;2023-03-25T12:35:40;12.60;71.00
43987;DHT22;29650;47.378;8.300;2023-03-25T12:38:21;12.80;72.20
43987;DHT22;29650;47.378;8.300;2023-03-25T12:41:02;12.60;71.10
43987;DHT22;29650;47.378;8.300;2023-03-25T12:43:42;12.50;69.50
43987;DHT22;29650;47.378;8.300;2023-03-25T12:46:21;13.00;69.80
43987;DHT22;29650;47.378;8.300;2023-03-25T12:49:02;13.10;70.70
43987;DHT22;29650;47.378;8.300;2023-03-25T12:51:39;13.20;70.50
43987;DHT22;29650;47.378;8.300;2023-03-25T12:54:23;12.80;68.30
43987;DHT22;29650;47.378;8.300;2023-03-25T12:57:02;12.70;68.60
43987;DHT22;29650;47.378;8.300;2023-03-25T12:59:46;12.90;67.90
43987;DHT22;29650;47.378;8.300;2023-03-25T13:02:31;13.00;67.00
43987;DHT22;29650;47.378;8.300;2023-03-25T13:05:05;12.60;66.40
43987;DHT22;29650;47.378;8.300;2023-03-25T13:07:41;13.00;66.80
43987;DHT22;29650;47.378;8.300;2023-03-25T13:10:14;12.50;66.50
43987;DHT22;29650;47.378;8.300;2023-03-25T13:12:47;12.60;67.60
43987;DHT22;29650;47.378;8.300;2023-03-25T13:15:19;13.10;67.60
43987;DHT22;29650;47.378;8.300;2023-03-25T13:17:50;12.80;67.50
43987;DHT22;29650;47.378;8.300;2023-03-25T13:20:19;12.90;67.10
43987;DHT22;29650;47.378;8.300;2023-03-25T13:22:51;12.90;67.30
43987;DHT22;29650;47.378;8.300;2023-03-25T13:25:21;13.00;67.80
43987;DHT22;29650;47.378;8.300;2023-03-25T13:27:50;12.50;67.00
43987;DHT22;29650;47.378;8.300;2023-03-25T13:30:26;12.90;68.00
43987;DHT22;29650;47.378;8.300;2023-03-25T13:32:56;13.30;69.40
43987;DHT22;29650;47.378;8.300;2023-03-25T13:35:33;12.80;66.40
43987;DHT22;29650;47.378;8.300;2023-03-25T13:38:08;12.90;66.40
43987;DHT22;29650;47.378;8.300;2023-03-25T13:40:43;12.60;67.50
43987;DHT22;29650;47.378;8.300;2023-03-25T13:43:20;12.70;68.50
43987;DHT22;29650;47.378;8.300;2023-03-25T13:45:54;12.40;68.70
43987;DHT22;29650;47.378;8.300;2023-03-25T13:48:27;12.00;72.50
43987;DHT22;29650;47.378;8.300;2023-03-25T13:50:59;12.30;80.40
43987;DHT22;29650;47.378;8.300;2023-03-25T13:53:29;12.20;79.30
43987;DHT22;29650;47.378;8.300;2023-03-25T13:56:10;12.10;75.40
43987;DHT22;29650;47.378;8.300;2023-03-25T13:58:56;12.30;76.70
43987;DHT22;29650;47.378;8.300;2023-03-25T14:01:44;12.80;76.70
43987;DHT22;29650;47.378;8.300;2023-03-25T14:04:40;12.80;75.00
43987;DHT22;29650;47.378;8.300;2023-03-25T14:07:55;12.90;74.30
43987;DHT22;29650;47.378;8.300;2023-03-25T14:10:36;12.80;72.70
43987;DHT22;29650;47.378;8.300;2023-03-25T14:13:05;13.20;73.00
43987;DHT22;29650;47.378;8.300;2023-03-25T14:15:35;13.20;70.40
43987;DHT22;29650;47.378;8.300;2023-03-25T14:18:12;13.00;69.00
43987;DHT22;29650;47.378;8.300;2023-03-25T14:20:41;13.10;69.90
43987;DHT22;29650;47.378;8.300;2023-03-25T14:23:14;13.00;67.90
43987;DHT22;29650;47.378;8.300;2023-03-25T14:25:45;12.90;67.20
43987;DHT22;29650;47.378;8.300;2023-03-25T14:28:17;13.10;66.80
43987;DHT22;29650;47.378;8.300;2023-03-25T14:31:05;13.10;63.90
43987;DHT22;29650;47.378;8.300;2023-03-25T14:37:15;13.30;63.20
43987;DHT22;29650;47.378;8.300;2023-03-25T14:39:43;13.00;62.70
43987;DHT22;29650;47.378;8.300;2023-03-25T14:42:24;12.70;63.30
43987;DHT22;29650;47.378;8.300;2023-03-25T14:44:55;13.00;64.70
43987;DHT22;29650;47.378;8.300;2023-03-25T14:47:50;12.90;64.40
43987;DHT22;29650;47.378;8.300;2023-03-25T14:50:31;12.90;63.40
43987;DHT22;29650;47.378;8.300;2023-03-25T14:53:02;12.90;63.20
43987;DHT22;29650;47.378;8.300;2023-03-25T14:55:32;12.80;62.50
43987;DHT22;29650;47.378;8.300;2023-03-25T14:58:03;12.60;63.50
43987;DHT22;29650;47.378;8.300;2023-03-25T15:00:33;12.20;63.30
43987;DHT22;29650;47.378;8.300;2023-03-25T15:03:02;12.50;64.10
43987;DHT22;29650;47.378;8.300;2023-03-25T15:05:31;12.60;64.20
43987;DHT22;29650;47.378;8.300;2023-03-25T15:08:10;12.50;63.30
43987;DHT22;29650;47.378;8.300;2023-03-25T15:10:40;12.80;64.00
43987;DHT22;29650;47.378;8.300;2023-03-25T15:13:11;13.00;63.80
43987;DHT22;29650;47.378;8.300;2023-03-25T15:15:57;12.80;64.20
43987;DHT22;29650;47.378;8.300;2023-03-25T15:19:00;12.70;63.90
43987;DHT22;29650;47.378;8.300;2023-03-25T15:24:21;12.70;65.30
43987;DHT22;29650;47.378;8.300;2023-03-25T15:26:52;12.70;66.10
43987;DHT22;29650;47.378;8.300;2023-03-25T15:29:37;12.50;66.90
43987;DHT22;29650;47.378;8.300;2023-03-25T15:32:20;12.30;69.00
43987;DHT22;29650;47.378;8.300;2023-03-25T15:35:04;12.40;69.20
43987;DHT22;29650;47.378;8.300;2023-03-25T15:41:00;12.30;69.60
43987;DHT22;29650;47.378;8.300;2023-03-25T15:44:02;12.40;70.80
43987;DHT22;29650;47.378;8.300;2023-03-25T15:46:58;12.40;71.80
43987;DHT22;29650;47.378;8.300;2023-03-25T15:49:42;12.20;71.40
43987;DHT22;29650;47.378;8.300;2023-03-25T15:52:21;12.10;72.20
43987;DHT22;29650;47.378;8.300;2023-03-25T15:54:53;12.10;73.50
43987;DHT22;29650;47.378;8.300;2023-03-25T15:57:23;12.20;73.10
43987;DHT22;29650;47.378;8.300;2023-03-25T15:59:58;12.40;73.70
43987;DHT22;29650;47.378;8.300;2023-03-25T16:02:30;12.30;76.70
43987;DHT22;29650;47.378;8.300;2023-03-25T16:04:58;11.40;78.40
43987;DHT22;29650;47.378;8.300;2023-03-25T16:07:27;11.20;82.90
43987;DHT22;29650;47.378;8.300;2023-03-25T16:09:55;11.00;88.20
43987;DHT22;29650;47.378;8.300;2023-03-25T16:12:30;11.00;91.00
43987;DHT22;29650;47.378;8.300;2023-03-25T16:14:58;10.70;91.10
43987;DHT22;29650;47.378;8.300;2023-03-25T16:17:30;11.00;93.20
43987;DHT22;29650;47.378;8.300;2023-03-25T16:19:58;11.10;92.10
43987;DHT22;29650;47.378;8.300;2023-03-25T16:22:27;10.80;91.40
43987;DHT22;29650;47.378;8.300;2023-03-25T16:24:58;11.10;93.00
43987;DHT22;29650;47.378;8.300;2023-03-25T16:27:33;11.30;91.50